Time;durP1;ratioP1;P1;durP2;ratioP2;P2;SDS_P1;SDS_P2;PMS_P1;PMS_P2;Temp;Humidity;BMP_temperature;BMP_pressure;BME280_temperature;BME280_humidity;BME280_pressure;Samples;Min_cycle;Max_cycle;Signal;HPM_P1;HPM_P2
2022/05/24 00:00:48;;;;;;;9.60;7.00;;;12.90;99.90;;;;;;5105156;28;20075;-54
2022/05/24 00:03:14;;;;;;;10.20;7.05;;;12.90;99.90;;;;;;5103545;28;20521;-54
2022/05/24 00:05:40;;;;;;;9.93;7.55;;;12.90;99.90;;;;;;5110559;27;20050;-51
2022/05/24 00:08:07;;;;;;;10.57;7.55;;;12.80;99.90;;;;;;5102588;27;20048;-51
2022/05/24 00:10:34;;;;;;;12.02;7.93;;;12.80;99.90;;;;;;5102499;27;20047;-46
2022/05/24 00:12:59;;;;;;;10.82;7.75;;;12.80;99.90;;;;;;5102952;28;20075;-51
2022/05/24 00:15:30;;;;;;;10.32;7.57;;;12.70;99.90;;;;;;5102932;28;20502;-53
2022/05/24 00:17:58;;;;;;;8.57;7.63;;;12.60;99.90;;;;;;5102118;27;20441;-49
2022/05/24 00:20:29;;;;;;;10.70;8.20;;;12.60;99.90;;;;;;5103959;28;20047;-55
2022/05/24 00:22:54;;;;;;;11.95;7.88;;;12.60;99.90;;;;;;5102177;28;20495;-50
2022/05/24 00:25:20;;;;;;;12.38;7.65;;;12.60;99.90;;;;;;5102900;27;20063;-49
2022/05/24 00:27:46;;;;;;;10.48;8.10;;;12.60;99.90;;;;;;5103833;27;20055;-53
2022/05/24 00:30:14;;;;;;;9.27;8.38;;;12.60;99.90;;;;;;5103390;28;20053;-51
2022/05/24 00:32:40;;;;;;;11.15;7.97;;;12.50;99.90;;;;;;5102108;28;20058;-54
2022/05/24 00:35:07;;;;;;;9.35;7.50;;;12.50;99.90;;;;;;5095136;28;20063;-48
2022/05/24 00:37:33;;;;;;;12.07;7.80;;;12.60;99.90;;;;;;5101754;28;20039;-52
2022/05/24 00:39:59;;;;;;;7.65;6.55;;;12.60;99.90;;;;;;5103573;28;20044;-51
2022/05/24 00:42:29;;;;;;;9.18;6.40;;;12.60;99.90;;;;;;5104380;27;20051;-52
2022/05/24 00:45:09;;;;;;;10.75;7.38;;;12.60;99.90;;;;;;5109308;27;20055;-52
2022/05/24 00:47:39;;;;;;;10.55;7.22;;;12.60;99.90;;;;;;5094900;27;20052;-48
2022/05/24 00:50:16;;;;;;;12.18;8.57;;;12.60;99.90;;;;;;5101710;28;20043;-54
2022/05/24 00:52:51;;;;;;;8.77;7.88;;;12.60;99.90;;;;;;5110044;27;20171;-51
2022/05/24 00:55:22;;;;;;;11.00;8.02;;;12.60;99.90;;;;;;5119441;27;20039;-51
2022/05/24 00:58:41;;;;;;;9.20;7.65;;;12.70;99.90;;;;;;5104179;28;20063;-53
2022/05/24 01:01:31;;;;;;;9.35;8.18;;;12.70;99.90;;;;;;5035302;28;20392;-55
2022/05/24 01:03:57;;;;;;;11.07;7.97;;;12.80;99.90;;;;;;5034111;28;20068;-53
2022/05/24 01:06:24;;;;;;;10.75;8.15;;;12.80;99.90;;;;;;5051808;28;20456;-56
2022/05/24 01:08:52;;;;;;;11.50;8.65;;;12.80;99.90;;;;;;5050566;28;20128;-51
2022/05/24 01:11:19;;;;;;;9.18;7.38;;;12.90;99.90;;;;;;5048167;28;20053;-53
2022/05/24 01:13:45;;;;;;;9.32;8.43;;;12.90;99.90;;;;;;5040681;28;20056;-53
2022/05/24 01:16:13;;;;;;;9.80;8.43;;;12.90;99.90;;;;;;5036538;28;20053;-52
2022/05/24 01:18:39;;;;;;;10.70;9.52;;;12.90;99.90;;;;;;5039951;28;20068;-48
2022/05/24 01:21:08;;;;;;;9.10;8.20;;;13.00;99.90;;;;;;5021356;28;20495;-52
2022/05/24 01:24:02;;;;;;;9.85;8.25;;;13.10;99.90;;;;;;5039645;28;20049;-51
2022/05/24 01:26:40;;;;;;;10.00;8.63;;;13.10;99.90;;;;;;5049949;28;20387;-49
2022/05/24 01:29:08;;;;;;;10.32;9.32;;;13.10;99.90;;;;;;5023530;28;20060;-51
2022/05/24 01:37:19;;;;;;;11.60;10.40;;;13.20;99.90;;;;;;5052522;28;20508;-53
2022/05/24 01:39:52;;;;;;;13.27;11.98;;;13.20;99.90;;;;;;5058158;28;20048;-55
2022/05/24 01:42:19;;;;;;;13.10;11.80;;;13.20;99.90;;;;;;5056753;28;20431;-51
2022/05/24 01:44:57;;;;;;;14.48;12.60;;;13.20;99.90;;;;;;5043109;28;20054;-54
2022/05/24 01:47:25;;;;;;;13.98;12.35;;;13.20;99.90;;;;;;5057368;28;20533;-52
2022/05/24 01:49:55;;;;;;;15.75;14.23;;;13.20;99.90;;;;;;5069278;28;20069;-51
2022/05/24 01:52:28;;;;;;;15.82;14.18;;;13.20;99.90;;;;;;5074052;28;20558;-50
2022/05/24 01:55:16;;;;;;;18.40;16.10;;;13.20;99.90;;;;;;5052226;28;20104;-49
2022/05/24 01:57:49;;;;;;;18.63;16.33;;;13.20;99.90;;;;;;5047314;28;20052;-53
2022/05/24 02:00:15;;;;;;;;;;;13.20;99.90;;;;;;5058469;28;20060;-52
2022/05/24 02:02:42;;;;;;;17.25;15.45;;;13.20;99.90;;;;;;5056882;28;19924;-53
2022/05/24 02:05:10;;;;;;;17.00;15.20;;;13.20;99.90;;;;;;5040485;28;20075;-48
2022/05/24 02:07:37;;;;;;;17.73;15.82;;;13.10;99.90;;;;;;5032204;28;20961;-55
2022/05/24 02:10:03;;;;;;;18.60;16.65;;;13.20;99.90;;;;;;5057460;28;20044;-55
2022/05/24 02:12:46;;;;;;;18.02;16.00;;;13.10;99.90;;;;;;5066835;28;20540;-52
2022/05/24 02:15:19;;;;;;;22.08;16.60;;;13.20;99.90;;;;;;5102477;28;20050;-54
2022/05/24 02:17:54;;;;;;;19.20;17.20;;;13.10;99.90;;;;;;5099955;28;20530;-57
2022/05/24 02:20:46;;;;;;;21.38;16.92;;;13.20;99.90;;;;;;5101675;28;20047;-49
2022/05/24 02:23:15;;;;;;;20.95;18.75;;;13.20;99.90;;;;;;5095933;28;20518;-51
2022/05/24 02:25:51;;;;;;;20.45;18.45;;;13.20;99.90;;;;;;5101880;28;20139;-52
2022/05/24 02:28:19;;;;;;;26.70;21.15;;;13.20;99.90;;;;;;5101932;28;20040;-55
2022/05/24 02:30:50;;;;;;;24.92;21.60;;;13.20;99.90;;;;;;5100612;28;20100;-54
2022/05/24 02:33:15;;;;;;;29.45;23.98;;;13.20;99.90;;;;;;5099055;28;20052;-56
2022/05/24 02:35:41;;;;;;;27.67;23.90;;;13.20;99.90;;;;;;5092137;28;20052;-55
2022/05/24 02:38:07;;;;;;;28.27;25.38;;;13.20;99.90;;;;;;5100519;28;20529;-56
2022/05/24 02:43:17;;;;;;;30.92;26.90;;;13.30;99.90;;;;;;5101281;28;20058;-49
2022/05/24 02:45:43;;;;;;;31.63;27.48;;;13.30;99.90;;;;;;5101334;28;20473;-54
2022/05/24 02:48:09;;;;;;;31.17;26.27;;;13.40;99.90;;;;;;5100085;28;20051;-51
2022/05/24 02:50:35;;;;;;;29.75;25.75;;;13.40;99.90;;;;;;5115048;28;20408;-50
2022/05/24 02:53:01;;;;;;;29.98;26.90;;;13.50;99.90;;;;;;5120156;27;20048;-50
2022/05/24 02:55:27;;;;;;;31.35;28.02;;;13.50;99.90;;;;;;5101331;28;20056;-51
2022/05/24 02:57:53;;;;;;;30.30;26.88;;;13.50;99.90;;;;;;5101047;28;20448;-54
2022/05/24 03:00:22;;;;;;;33.90;27.23;;;13.40;99.90;;;;;;5101508;28;20048;-47
2022/05/24 03:02:52;;;;;;;31.45;28.17;;;13.50;99.90;;;;;;5101576;28;20078;-51
2022/05/24 03:05:18;;;;;;;36.10;30.48;;;13.50;99.90;;;;;;5101251;28;20440;-52
2022/05/24 03:10:31;;;;;;;32.55;29.00;;;13.60;99.90;;;;;;5094035;28;20066;-48
2022/05/24 03:15:43;;;;;;;34.28;30.30;;;13.60;99.90;;;;;;5100521;28;20172;-53
2022/05/24 03:18:11;;;;;;;30.90;26.88;;;13.60;99.90;;;;;;5099321;28;20073;-55
2022/05/24 03:20:38;;;;;;;27.58;24.65;;;13.60;99.90;;;;;;5102773;28;20052;-53
2022/05/24 03:23:04;;;;;;;28.08;24.98;;;13.60;99.90;;;;;;5102046;28;20055;-51
2022/05/24 03:25:31;;;;;;;26.15;23.45;;;13.50;99.90;;;;;;5114134;28;20104;-54
2022/05/24 03:28:01;;;;;;;26.55;23.75;;;13.50;99.90;;;;;;5104394;27;20047;-52
2022/05/24 03:30:27;;;;;;;28.13;24.98;;;13.50;99.90;;;;;;5100748;28;20099;-50
2022/05/24 03:32:53;;;;;;;26.58;23.63;;;13.50;99.90;;;;;;5100894;28;20169;-48
2022/05/24 03:35:20;;;;;;;26.27;23.45;;;13.50;99.90;;;;;;5099448;28;20492;-53
2022/05/24 03:37:45;;;;;;;24.38;21.92;;;13.50;99.90;;;;;;5099575;28;20126;-48
2022/05/24 03:40:11;;;;;;;23.45;20.38;;;13.50;99.90;;;;;;5099594;28;20590;-53
2022/05/24 03:42:38;;;;;;;22.38;20.27;;;13.50;99.90;;;;;;5099828;28;20055;-53
2022/05/24 03:45:07;;;;;;;20.02;17.98;;;13.50;99.90;;;;;;5102661;28;20608;-51
2022/05/24 03:47:33;;;;;;;20.52;17.95;;;13.60;99.90;;;;;;5104717;28;20036;-54
2022/05/24 03:49:58;;;;;;;19.65;16.83;;;13.50;99.90;;;;;;5116598;27;20047;-48
2022/05/24 03:52:24;;;;;;;18.90;16.90;;;13.50;99.90;;;;;;5091239;27;20417;-52
2022/05/24 03:54:50;;;;;;;18.83;16.52;;;13.50;99.90;;;;;;5110960;27;20075;-50
2022/05/24 04:00:01;;;;;;;18.92;16.88;;;13.40;99.90;;;;;;5103236;27;20090;-51
2022/05/24 04:02:27;;;;;;;19.00;16.92;;;13.40;99.90;;;;;;5102098;28;20673;-49
2022/05/24 04:04:53;;;;;;;21.95;17.75;;;13.40;99.90;;;;;;5101973;28;20044;-50
2022/05/24 04:07:19;;;;;;;19.42;17.35;;;13.40;99.90;;;;;;5097311;28;20048;-48
2022/05/24 04:09:45;;;;;;;23.65;18.25;;;13.30;99.90;;;;;;5099958;28;20105;-53
2022/05/24 04:12:11;;;;;;;20.73;17.15;;;13.40;99.90;;;;;;5093184;28;20043;-49
2022/05/24 04:14:36;;;;;;;23.15;17.92;;;13.30;99.90;;;;;;5104422;28;20455;-49
2022/05/24 04:17:02;;;;;;;24.92;18.58;;;13.30;99.90;;;;;;5103889;28;20075;-54
2022/05/24 04:19:28;;;;;;;22.45;18.00;;;13.40;99.90;;;;;;5104038;28;20075;-49
2022/05/24 04:21:54;;;;;;;20.83;17.92;;;13.30;99.90;;;;;;5104422;27;20449;-54
2022/05/24 04:24:20;;;;;;;20.25;18.13;;;13.30;99.90;;;;;;5104127;28;20070;-54
2022/05/24 04:26:47;;;;;;;20.83;18.08;;;13.30;99.90;;;;;;5102965;27;20494;-53
2022/05/24 04:29:12;;;;;;;18.92;16.88;;;13.30;99.90;;;;;;5102579;28;20048;-54
2022/05/24 04:31:39;;;;;;;20.67;17.92;;;13.30;99.90;;;;;;5101217;28;20047;-48
2022/05/24 04:34:05;;;;;;;18.95;17.05;;;13.40;99.90;;;;;;5101226;28;20112;-51
2022/05/24 04:36:31;;;;;;;19.42;16.52;;;13.40;99.90;;;;;;5104213;28;20059;-56
2022/05/24 04:38:57;;;;;;;20.75;16.80;;;13.40;99.90;;;;;;5105136;27;20055;-51
2022/05/24 04:44:11;;;;;;;22.27;18.88;;;13.40;99.90;;;;;;5103882;28;20597;-51
2022/05/24 04:49:23;;;;;;;24.75;17.58;;;13.50;99.90;;;;;;5104140;27;20051;-52
2022/05/24 04:51:52;;;;;;;21.63;17.83;;;13.60;99.90;;;;;;5102241;27;20442;-49
2022/05/24 04:54:18;;;;;;;23.95;17.60;;;13.60;99.90;;;;;;5102242;28;20138;-51
2022/05/24 04:56:43;;;;;;;20.10;16.23;;;13.60;99.90;;;;;;5082911;28;20130;-56
2022/05/24 04:59:09;;;;;;;22.75;15.30;;;13.60;99.90;;;;;;5102138;28;20367;-52
2022/05/24 05:01:35;;;;;;;23.35;16.35;;;13.60;99.90;;;;;;5101332;27;20126;-50
2022/05/24 05:04:01;;;;;;;26.90;16.15;;;13.60;99.90;;;;;;5102231;28;20100;-51
2022/05/24 05:06:27;;;;;;;21.90;15.48;;;13.60;99.90;;;;;;5101918;28;20055;-52
2022/05/24 05:08:56;;;;;;;22.23;15.63;;;13.70;99.90;;;;;;5101435;28;20548;-55
2022/05/24 05:11:21;;;;;;;22.20;17.42;;;13.60;99.90;;;;;;5101654;28;20505;-51
2022/05/24 05:13:47;;;;;;;24.77;18.65;;;13.60;99.90;;;;;;5102300;28;20059;-53
2022/05/24 05:16:13;;;;;;;30.90;19.90;;;13.60;99.90;;;;;;5101935;28;20058;-50
2022/05/24 05:18:39;;;;;;;44.95;22.25;;;13.60;99.90;;;;;;5103121;28;20040;-46
2022/05/24 05:21:05;;;;;;;35.10;19.92;;;13.50;99.90;;;;;;5102405;28;20168;-50
2022/05/24 05:23:32;;;;;;;27.33;18.35;;;13.50;99.90;;;;;;5103927;28;20043;-55
2022/05/24 05:25:57;;;;;;;26.85;16.30;;;13.40;99.90;;;;;;5102483;28;20501;-53
2022/05/24 05:28:23;;;;;;;24.10;18.08;;;13.40;99.90;;;;;;5102348;28;20055;-49
2022/05/24 05:33:34;;;;;;;28.20;17.85;;;13.40;99.90;;;;;;5103145;28;20074;-55
2022/05/24 05:36:00;;;;;;;24.92;17.05;;;13.40;99.90;;;;;;5092668;28;20563;-50
2022/05/24 05:38:26;;;;;;;29.27;17.73;;;13.40;99.90;;;;;;5101162;28;20426;-49
2022/05/24 05:41:00;;;;;;;39.67;26.02;;;13.40;99.90;;;;;;5100994;27;20380;-48
2022/05/24 05:43:27;;;;;;;74.47;27.00;;;13.40;99.90;;;;;;5101384;28;20188;-48
2022/05/24 05:45:54;;;;;;;31.40;22.27;;;13.30;99.90;;;;;;5103104;28;20055;-53
2022/05/24 05:48:21;;;;;;;33.17;25.83;;;13.30;99.90;;;;;;5103291;28;20091;-52
2022/05/24 05:50:47;;;;;;;34.67;28.13;;;13.30;99.90;;;;;;5103643;28;20055;-47
2022/05/24 05:53:14;;;;;;;39.15;27.52;;;13.20;99.90;;;;;;5103162;28;20074;-50
2022/05/24 05:55:43;;;;;;;38.67;26.45;;;13.10;99.90;;;;;;5101637;28;20655;-55
2022/05/24 05:58:09;;;;;;;39.00;26.77;;;13.20;99.90;;;;;;5103019;28;20047;-50
2022/05/24 06:00:36;;;;;;;34.38;26.38;;;13.20;99.90;;;;;;5100891;28;20051;-52
2022/05/24 06:03:01;;;;;;;34.42;24.88;;;13.20;99.90;;;;;;5100328;28;20048;-52
2022/05/24 06:05:27;;;;;;;36.97;25.05;;;13.20;99.90;;;;;;5102583;28;20043;-50
2022/05/24 06:07:58;;;;;;;26.40;20.50;;;13.30;99.90;;;;;;5097139;28;20048;-49
2022/05/24 06:10:25;;;;;;;34.08;24.02;;;13.30;99.90;;;;;;5092382;28;20040;-54
2022/05/24 06:12:51;;;;;;;27.33;18.25;;;13.40;99.90;;;;;;5101127;28;20130;-47
2022/05/24 06:15:18;;;;;;;21.70;13.50;;;13.40;99.90;;;;;;5102463;28;20388;-50
2022/05/24 06:17:46;;;;;;;16.55;9.75;;;13.60;99.90;;;;;;5100405;28;20060;-53
2022/05/24 06:20:12;;;;;;;15.82;8.90;;;13.60;99.90;;;;;;5099422;28;20482;-53
2022/05/24 06:22:38;;;;;;;14.40;6.97;;;13.70;99.90;;;;;;5099021;28;20081;-51
2022/05/24 06:25:04;;;;;;;11.45;6.93;;;13.70;99.90;;;;;;5098220;28;20158;-55
2022/05/24 06:27:30;;;;;;;10.35;5.70;;;13.80;99.90;;;;;;5093833;28;20055;-53
2022/05/24 06:29:56;;;;;;;13.68;6.07;;;14.00;99.90;;;;;;5099280;28;20036;-53
2022/05/24 06:32:22;;;;;;;9.65;5.45;;;14.10;99.90;;;;;;5100356;28;20521;-53
2022/05/24 06:34:49;;;;;;;10.30;5.68;;;14.10;99.90;;;;;;5100288;28;20119;-51
2022/05/24 06:37:21;;;;;;;11.40;5.88;;;14.10;99.90;;;;;;5100817;28;20411;-52
2022/05/24 06:39:49;;;;;;;7.43;6.20;;;14.10;99.90;;;;;;5101818;28;20051;-54
2022/05/24 06:42:15;;;;;;;10.88;5.70;;;14.10;99.90;;;;;;5100958;28;20039;-54
2022/05/24 06:44:41;;;;;;;9.63;5.32;;;14.10;99.90;;;;;;5101934;28;20040;-54
2022/05/24 06:47:08;;;;;;;11.80;5.60;;;14.20;99.90;;;;;;5100689;28;20060;-55
2022/05/24 06:49:33;;;;;;;9.45;5.97;;;14.20;99.90;;;;;;5104882;28;20420;-50
2022/05/24 06:51:59;;;;;;;11.70;5.90;;;14.20;99.90;;;;;;5101653;28;20040;-53
2022/05/24 06:54:29;;;;;;;14.45;6.82;;;14.20;99.90;;;;;;5100448;28;20044;-53
2022/05/24 06:56:55;;;;;;;12.52;7.00;;;14.30;99.90;;;;;;5101689;28;20096;-53
2022/05/24 07:05:00;;;;;;;11.45;7.00;;;14.30;99.90;;;;;;5102792;28;20050;-54
2022/05/24 07:07:28;;;;;;;11.85;8.32;;;14.30;99.90;;;;;;5096130;28;20044;-51
2022/05/24 07:09:54;;;;;;;10.93;7.97;;;14.30;99.90;;;;;;5098498;28;20126;-61
2022/05/24 07:12:21;;;;;;;11.82;8.02;;;14.20;99.90;;;;;;5098171;28;20153;-49
2022/05/24 07:14:48;;;;;;;11.15;7.95;;;14.20;99.90;;;;;;5097499;28;20581;-52
2022/05/24 07:17:17;;;;;;;10.95;7.93;;;14.10;99.90;;;;;;5101301;28;20118;-54
2022/05/24 07:19:43;;;;;;;13.70;8.90;;;14.00;99.90;;;;;;5103552;27;20047;-54
2022/05/24 07:22:09;;;;;;;13.20;8.27;;;14.00;99.90;;;;;;5099166;28;20130;-47
2022/05/24 07:24:35;;;;;;;11.38;8.57;;;14.00;99.90;;;;;;5105044;28;20473;-49
2022/05/24 07:27:04;;;;;;;14.75;8.88;;;14.00;99.90;;;;;;5105170;28;20123;-52
2022/05/24 07:29:33;;;;;;;15.40;8.60;;;14.10;99.90;;;;;;5102499;28;20423;-50
2022/05/24 07:31:59;;;;;;;12.85;8.70;;;14.00;99.90;;;;;;5103449;27;20146;-51
2022/05/24 07:34:25;;;;;;;14.57;9.07;;;14.00;99.90;;;;;;5104606;27;20051;-53
2022/05/24 07:36:51;;;;;;;11.77;9.38;;;14.00;99.90;;;;;;5102904;28;20055;-55
2022/05/24 07:39:18;;;;;;;15.68;9.50;;;14.00;99.90;;;;;;5102959;27;20500;-50
2022/05/24 07:47:19;;;;;;;13.32;7.35;;;14.00;99.90;;;;;;5101755;28;20051;-53
2022/05/24 07:49:45;;;;;;;12.73;7.25;;;13.90;99.90;;;;;;5103566;27;20048;-50
2022/05/24 07:52:11;;;;;;;12.13;7.40;;;13.90;99.90;;;;;;5104372;27;20074;-49
2022/05/24 07:54:36;;;;;;;11.50;7.40;;;14.00;99.90;;;;;;5105020;28;20058;-49
2022/05/24 07:57:03;;;;;;;9.20;5.85;;;14.00;99.90;;;;;;5103694;27;20044;-51
2022/05/24 07:59:29;;;;;;;12.40;6.72;;;14.00;99.90;;;;;;5105108;27;20083;-45
2022/05/24 08:01:55;;;;;;;13.95;7.05;;;14.10;99.90;;;;;;5103448;27;20135;-53
2022/05/24 08:04:21;;;;;;;10.25;5.90;;;14.20;99.90;;;;;;5104320;28;20409;-49
2022/05/24 08:06:47;;;;;;;11.52;5.80;;;14.50;99.90;;;;;;5102129;28;20042;-47
2022/05/24 08:09:12;;;;;;;11.68;5.82;;;14.60;99.90;;;;;;5101963;28;20067;-52
2022/05/24 08:11:38;;;;;;;7.90;5.15;;;14.70;99.90;;;;;;5104561;28;20427;-51
2022/05/24 08:14:06;;;;;;;11.23;5.30;;;14.70;99.90;;;;;;5105126;27;20043;-50
2022/05/24 08:16:32;;;;;;;12.68;5.38;;;14.60;99.90;;;;;;5105961;28;20044;-53
2022/05/24 08:19:02;;;;;;;9.60;3.80;;;14.50;99.90;;;;;;5108161;28;20044;-43
2022/05/24 08:21:29;;;;;;;6.47;3.80;;;14.40;99.90;;;;;;5102691;28;20048;-50
2022/05/24 08:23:55;;;;;;;9.88;5.32;;;14.30;99.90;;;;;;5104176;28;20051;-52
2022/05/24 08:26:21;;;;;;;9.95;4.63;;;14.30;99.90;;;;;;5102791;28;20043;-54
2022/05/24 08:28:47;;;;;;;15.27;6.60;;;14.00;99.90;;;;;;5104201;28;20036;-49
2022/05/24 08:31:15;;;;;;;12.25;5.13;;;13.90;99.90;;;;;;5102092;28;20043;-49
2022/05/24 08:33:41;;;;;;;6.07;3.00;;;13.60;99.90;;;;;;5101164;28;20448;-45
2022/05/24 08:36:07;;;;;;;5.68;3.85;;;13.30;99.90;;;;;;5103430;28;20097;-50
2022/05/24 08:38:34;;;;;;;5.80;2.25;;;13.20;99.90;;;;;;5101267;28;20048;-49
2022/05/24 08:41:06;;;;;;;5.10;1.80;;;13.00;99.90;;;;;;5103071;27;20047;-51
2022/05/24 08:43:57;;;;;;;3.47;1.85;;;12.90;99.90;;;;;;5096316;28;20048;-53
2022/05/24 08:49:17;;;;;;;6.32;1.48;;;12.90;99.90;;;;;;5108772;27;20145;-54
2022/05/24 08:51:52;;;;;;;3.30;1.42;;;13.00;99.90;;;;;;5120161;27;20051;-52
2022/05/24 08:54:25;;;;;;;5.93;1.58;;;13.10;99.90;;;;;;5091706;27;20055;-51
2022/05/24 08:56:55;;;;;;;;;;;13.30;99.90;;;;;;5102243;27;20054;-52
2022/05/24 08:59:28;;;;;;;3.45;1.58;;;13.40;99.90;;;;;;5101556;28;19959;-51
2022/05/24 09:01:56;;;;;;;3.83;2.00;;;13.60;99.90;;;;;;5102015;27;20144;-50
2022/05/24 09:04:22;;;;;;;6.03;2.33;;;13.50;99.90;;;;;;5104184;28;20493;-49
2022/05/24 09:06:58;;;;;;;5.15;2.00;;;13.60;99.90;;;;;;5103491;27;20051;-52
2022/05/24 09:09:33;;;;;;;4.65;1.90;;;13.60;99.90;;;;;;5103353;28;20039;-52
2022/05/24 09:12:26;;;;;;;5.65;2.20;;;13.70;99.90;;;;;;5090293;28;20492;-47
2022/05/24 09:15:21;;;;;;;5.78;2.30;;;13.80;99.90;;;;;;5101222;28;20050;-52
2022/05/24 09:17:48;;;;;;;4.55;2.60;;;14.00;99.90;;;;;;5102838;28;20051;-54
2022/05/24 09:20:41;;;;;;;3.85;2.47;;;14.30;99.90;;;;;;5101246;28;20050;-50
2022/05/24 09:23:24;;;;;;;6.57;3.17;;;14.80;99.90;;;;;;5101504;28;20120;-55
2022/05/24 09:26:02;;;;;;;6.20;2.60;;;15.50;99.90;;;;;;5101895;27;20126;-53
2022/05/24 09:28:46;;;;;;;4.78;2.35;;;15.90;99.90;;;;;;5094194;28;20078;-53
2022/05/24 09:31:18;;;;;;;8.68;3.35;;;16.20;99.90;;;;;;5103452;27;20430;-52
2022/05/24 09:33:45;;;;;;;6.70;2.80;;;16.20;99.90;;;;;;5101355;28;20062;-43
2022/05/24 09:36:32;;;;;;;7.47;3.35;;;16.00;99.90;;;;;;5098463;27;20332;-48
2022/05/24 09:39:00;;;;;;;6.88;2.85;;;16.10;99.90;;;;;;5103972;27;20047;-47
2022/05/24 09:41:27;;;;;;;4.97;3.30;;;16.20;99.90;;;;;;5101784;28;20055;-54
2022/05/24 09:44:00;;;;;;;7.13;3.78;;;16.40;99.90;;;;;;5095659;27;20130;-52
2022/05/24 09:46:28;;;;;;;10.50;3.97;;;16.60;99.90;;;;;;5099870;28;20047;-52
2022/05/24 09:49:19;;;;;;;10.88;4.60;;;16.60;99.90;;;;;;5091806;27;20532;-52
2022/05/24 09:51:45;;;;;;;3.22;1.48;;;16.00;99.90;;;;;;5090245;27;20044;-51
2022/05/24 09:54:23;;;;;;;5.80;2.40;;;15.50;99.90;;;;;;5102558;27;20039;-52
2022/05/24 09:57:10;;;;;;;4.75;2.05;;;15.30;99.90;;;;;;5103148;27;20074;-51
2022/05/24 09:59:39;;;;;;;4.25;2.00;;;15.10;99.90;;;;;;5097025;28;20059;-46
2022/05/24 10:02:30;;;;;;;2.90;1.77;;;14.90;99.90;;;;;;5098795;28;20261;-53
2022/05/24 10:04:56;;;;;;;3.05;2.13;;;14.70;99.90;;;;;;5083669;28;20557;-48
2022/05/24 10:07:30;;;;;;;4.35;2.05;;;14.50;99.90;;;;;;5097239;28;20057;-50
2022/05/24 10:10:13;;;;;;;3.35;2.38;;;14.60;99.90;;;;;;5103477;27;20098;-54
2022/05/24 10:12:58;;;;;;;4.75;3.50;;;14.70;99.90;;;;;;5100147;28;20048;-51
2022/05/24 10:15:43;;;;;;;7.57;3.58;;;15.30;99.90;;;;;;5097791;28;20079;-51
2022/05/24 10:18:09;;;;;;;4.97;3.55;;;15.80;99.90;;;;;;5101526;27;20052;-50
2022/05/24 10:20:58;;;;;;;5.38;3.10;;;15.90;99.90;;;;;;5100751;28;20054;-53
2022/05/24 10:23:47;;;;;;;3.55;2.10;;;16.00;99.90;;;;;;5090325;28;20082;-53
2022/05/24 10:26:31;;;;;;;4.07;2.42;;;15.90;99.90;;;;;;5105561;27;20043;-50
2022/05/24 10:29:16;;;;;;;2.95;2.13;;;15.80;99.90;;;;;;5100045;28;20557;-53
2022/05/24 10:32:07;;;;;;;3.83;2.65;;;15.80;99.90;;;;;;5090787;28;20043;-53
2022/05/24 10:47:34;;;;;;;4.95;2.67;;;15.70;99.90;;;;;;5097868;27;20969;-46
2022/05/24 10:50:06;;;;;;;4.22;2.72;;;15.10;99.90;;;;;;5086579;28;20060;-47
2022/05/24 10:53:15;;;;;;;4.13;2.47;;;15.10;99.90;;;;;;5089496;28;20044;-47
2022/05/24 10:55:47;;;;;;;4.18;1.48;;;15.20;99.90;;;;;;5004485;28;20460;-45
2022/05/24 10:58:18;;;;;;;7.40;1.50;;;15.20;99.90;;;;;;5005255;28;20129;-44
2022/05/24 11:00:52;;;;;;;5.43;2.05;;;15.40;99.90;;;;;;5005436;28;20654;-45
2022/05/24 11:03:27;;;;;;;6.47;2.05;;;15.90;99.90;;;;;;5004798;28;20508;-47
2022/05/24 11:05:57;;;;;;;5.53;2.08;;;16.10;99.90;;;;;;4995229;28;20041;-46
2022/05/24 11:08:38;;;;;;;3.58;1.75;;;16.00;99.90;;;;;;4981459;28;20185;-49
2022/05/24 11:11:13;;;;;;;3.47;1.77;;;16.00;99.90;;;;;;4992057;28;20690;-47
2022/05/24 11:14:07;;;;;;;5.72;1.75;;;16.00;99.90;;;;;;4993475;28;20513;-45
2022/05/24 11:16:47;;;;;;;2.40;1.63;;;16.00;99.90;;;;;;4993048;28;20045;-47
2022/05/24 11:19:25;;;;;;;3.25;1.33;;;15.90;99.90;;;;;;4992169;28;20335;-47
2022/05/24 11:22:18;;;;;;;3.38;1.60;;;15.90;99.90;;;;;;4992729;28;20479;-46
2022/05/24 11:24:50;;;;;;;;;;;15.80;99.90;;;;;;4996859;28;20576;-46
2022/05/24 11:27:22;;;;;;;6.43;1.63;;;15.90;99.90;;;;;;5064104;28;19926;-47
2022/05/24 11:29:59;;;;;;;5.13;1.30;;;16.10;99.90;;;;;;5078747;28;20188;-45
2022/05/24 11:32:39;;;;;;;4.60;1.33;;;16.40;99.90;;;;;;5079540;28;20048;-50
2022/05/24 11:35:12;;;;;;;3.25;1.65;;;16.60;99.90;;;;;;5084127;28;20048;-51
2022/05/24 11:37:42;;;;;;;;;;;16.50;99.90;;;;;;5077113;28;20043;-47
2022/05/24 11:40:32;;;;;;;5.55;1.80;;;16.50;99.90;;;;;;5078088;28;19924;-51
2022/05/24 11:43:08;;;;;;;2.38;1.13;;;16.60;99.90;;;;;;5058872;28;20053;-48
2022/05/24 11:45:37;;;;;;;3.08;1.48;;;16.90;99.90;;;;;;5051876;28;20348;-50
2022/05/24 11:48:05;;;;;;;4.15;1.45;;;17.00;99.90;;;;;;5042605;28;20150;-46
2022/05/24 11:50:31;;;;;;;4.43;1.73;;;17.20;99.90;;;;;;5043430;28;20041;-49
2022/05/24 11:53:15;;;;;;;6.18;1.50;;;17.00;99.90;;;;;;5042466;28;20486;-47
2022/05/24 11:55:53;;;;;;;3.47;1.35;;;16.90;99.90;;;;;;5028763;28;20061;-45
2022/05/24 11:58:40;;;;;;;1.70;1.00;;;16.40;99.90;;;;;;5040722;28;20045;-45
2022/05/24 12:01:15;;;;;;;4.05;1.10;;;16.00;99.90;;;;;;5042582;28;20128;-45
2022/05/24 12:10:11;;;;;;;3.60;1.60;;;15.50;99.90;;;;;;5042942;28;20769;-49
2022/05/24 12:12:44;;;;;;;5.00;2.03;;;15.60;99.90;;;;;;5031595;28;20048;-47
2022/05/24 12:15:21;;;;;;;4.10;2.08;;;15.70;99.90;;;;;;5035036;28;20060;-47
2022/05/24 12:18:12;;;;;;;4.93;1.83;;;15.60;99.90;;;;;;5015997;28;20057;-45
2022/05/24 12:20:38;;;;;;;5.55;2.60;;;15.70;99.90;;;;;;5041810;28;20140;-50
2022/05/24 12:23:06;;;;;;;2.80;2.00;;;15.80;99.90;;;;;;5034387;28;20331;-45
2022/05/24 12:25:58;;;;;;;4.30;2.22;;;16.20;99.90;;;;;;5043401;28;20454;-46
2022/05/24 12:28:35;;;;;;;6.32;2.42;;;16.80;99.90;;;;;;5024817;28;20407;-46
2022/05/24 12:31:14;;;;;;;5.63;2.50;;;16.90;99.90;;;;;;5039944;28;20102;-47
2022/05/24 12:33:43;;;;;;;7.40;2.13;;;16.80;99.90;;;;;;5041604;28;20973;-46
2022/05/24 12:36:22;;;;;;;6.40;2.40;;;16.50;99.90;;;;;;5042127;28;20045;-47
2022/05/24 12:38:56;;;;;;;4.38;2.53;;;16.40;99.90;;;;;;5042482;28;20048;-48
2022/05/24 12:41:45;;;;;;;3.72;2.17;;;16.10;99.90;;;;;;5038283;28;20045;-49
2022/05/24 12:44:31;;;;;;;4.88;2.72;;;16.20;99.90;;;;;;4954286;28;20169;-50
2022/05/24 12:47:06;;;;;;;4.50;2.35;;;16.70;99.90;;;;;;4961903;28;20589;-45
2022/05/24 12:49:51;;;;;;;4.47;2.50;;;16.90;99.90;;;;;;4968009;28;20051;-47
2022/05/24 12:52:27;;;;;;;6.10;3.08;;;16.90;99.90;;;;;;4961080;28;20082;-47
2022/05/24 12:54:57;;;;;;;3.78;2.58;;;16.80;99.90;;;;;;4964580;28;20055;-49
2022/05/24 12:57:28;;;;;;;4.57;3.13;;;16.70;99.90;;;;;;4969547;28;20148;-48
2022/05/24 12:59:59;;;;;;;3.75;2.85;;;16.40;99.90;;;;;;4967204;28;20492;-45
2022/05/24 13:02:30;;;;;;;5.68;4.05;;;16.20;99.90;;;;;;4941103;28;20145;-47
2022/05/24 13:05:28;;;;;;;9.60;4.40;;;15.90;99.90;;;;;;4967080;28;20050;-47
2022/05/24 13:07:53;;;;;;;8.45;6.03;;;15.60;99.90;;;;;;4958160;28;20525;-46
2022/05/24 13:10:22;;;;;;;7.82;5.88;;;15.40;99.90;;;;;;4962792;28;20201;-46
2022/05/24 13:13:13;;;;;;;9.40;6.20;;;15.50;99.90;;;;;;4968792;28;20580;-46
2022/05/24 13:15:45;;;;;;;5.82;5.15;;;15.60;99.90;;;;;;4958107;28;20458;-48
2022/05/24 13:18:19;;;;;;;7.63;6.22;;;15.70;99.90;;;;;;4955199;28;20066;-48
2022/05/24 13:20:52;;;;;;;7.53;6.82;;;15.70;99.90;;;;;;4994309;28;20131;-47
2022/05/24 13:23:26;;;;;;;10.15;6.93;;;15.60;99.90;;;;;;5056392;28;20094;-45
2022/05/24 13:25:54;;;;;;;9.38;8.02;;;15.60;99.90;;;;;;5053226;28;20044;-45
2022/05/24 13:28:43;;;;;;;8.05;6.68;;;15.50;99.90;;;;;;5054448;28;20134;-48
2022/05/24 13:34:19;;;;;;;6.50;5.85;;;15.50;99.90;;;;;;5059663;28;20763;-43
2022/05/24 13:36:50;;;;;;;8.05;6.68;;;15.50;99.90;;;;;;5053484;28;20095;-45
2022/05/24 13:39:19;;;;;;;12.73;6.82;;;15.70;99.90;;;;;;5049620;28;20045;-46
2022/05/24 13:42:05;;;;;;;8.27;6.10;;;16.10;99.90;;;;;;5058874;28;20056;-43
2022/05/24 13:44:38;;;;;;;6.35;5.75;;;16.40;99.90;;;;;;5061231;28;20126;-46
2022/05/24 13:47:09;;;;;;;10.07;6.25;;;16.30;99.90;;;;;;5059592;28;20060;-47
2022/05/24 13:49:47;;;;;;;8.32;6.50;;;16.00;99.90;;;;;;5059526;28;20473;-45
2022/05/24 13:52:25;;;;;;;8.05;7.07;;;15.90;99.90;;;;;;5067398;28;20123;-48
2022/05/24 13:55:13;;;;;;;8.75;7.30;;;15.80;99.90;;;;;;5035510;28;20048;-46
2022/05/24 13:57:59;;;;;;;7.90;5.32;;;15.80;99.90;;;;;;5046673;28;20084;-49
2022/05/24 14:00:28;;;;;;;7.07;5.95;;;15.80;99.90;;;;;;5044298;28;20052;-50